Las Vegas, Nellis Air Force Base (KLSV)

NameNellis Air Force Base
CityLas Vegas
CountryUnited States
ICAOKLSV
IATALSV
Altitude569 m
CoordinatesGoogle Map
Live Air TrafficLiveATC.net
METARKLSV 180058Z AUTO 14011KT 10SM FEW180 15/10 A2997 RMK AO2 SLPNO T01510097 $
2019-01-18 00:58:00 Wind: Southeast (140°) 5.66 m/s - Visibility: 16093.4 m - Temperature: 15 °C - Dew point: 10 °C - Humidity: 72.2% - Pressure: 1014.9 hPa
Statistics

The table below shows the detailed information of all flights to/from Las Vegas, Nellis Air Force Base (KLSV).